Time;durP1;ratioP1;P1;durP2;ratioP2;P2;SDS_P1;SDS_P2;PMS_P1;PMS_P2;Temp;Humidity;BMP_temperature;BMP_pressure;BME280_temperature;BME280_humidity;BME280_pressure;Samples;Min_cycle;Max_cycle;Signal;HPM_P1;HPM_P2
2021/05/16 00:06:22;;;;;;;1999.90;999.90;;;;;;;13.68;62.01;99817.44;15801036;28;20127;-64
2021/05/16 00:13:54;;;;;;;1999.90;999.90;;;;;;;13.63;63.17;99817.72;15802171;28;20373;-63
2021/05/16 00:21:27;;;;;;;1999.90;999.90;;;;;;;13.53;63.52;99821.97;15801036;28;20059;-63
2021/05/16 00:28:58;;;;;;;1999.90;999.90;;;;;;;13.31;63.41;99817.19;15800952;28;20139;-63
2021/05/16 00:36:31;;;;;;;1999.90;999.90;;;;;;;13.20;63.73;99800.19;15800507;28;20044;-64
2021/05/16 00:44:03;;;;;;;1999.90;999.90;;;;;;;13.22;63.91;99807.03;15800425;28;20068;-64
2021/05/16 00:51:35;;;;;;;1999.90;999.90;;;;;;;13.03;64.50;99815.47;15800866;28;20040;-64
2021/05/16 00:59:07;;;;;;;1999.90;999.90;;;;;;;13.01;64.38;99813.00;15799697;28;20523;-64
2021/05/16 01:06:44;;;;;;;1999.90;999.90;;;;;;;13.08;64.45;99812.34;15798906;28;20036;-63
2021/05/16 01:14:23;;;;;;;1999.90;999.90;;;;;;;12.99;65.21;99814.56;15788762;28;20126;-64
2021/05/16 01:21:56;;;;;;;1999.90;999.90;;;;;;;12.89;65.21;99807.59;15797947;28;20524;-64
2021/05/16 01:29:28;;;;;;;1999.90;999.90;;;;;;;12.69;65.74;99814.38;15797997;28;20040;-64
2021/05/16 01:37:01;;;;;;;1999.90;999.90;;;;;;;12.48;66.24;99800.75;15797142;28;20138;-64
2021/05/16 01:44:33;;;;;;;1999.90;999.90;;;;;;;12.42;66.74;99791.88;15778724;28;20047;-63
2021/05/16 01:52:06;;;;;;;1999.90;999.90;;;;;;;12.11;67.83;99817.97;15795756;28;20056;-62
2021/05/16 01:59:38;;;;;;;1999.90;999.90;;;;;;;12.04;68.06;99819.78;15778180;28;20059;-64
2021/05/16 02:07:11;;;;;;;1999.90;999.90;;;;;;;12.18;67.69;99831.28;15778523;28;20144;-63
2021/05/16 02:14:47;;;;;;;1999.90;999.90;;;;;;;11.99;68.05;99826.47;15794349;28;20514;-63
2021/05/16 02:22:19;;;;;;;1999.90;999.90;;;;;;;11.97;68.49;99826.00;15795379;28;20040;-63
2021/05/16 02:29:53;;;;;;;1999.90;999.90;;;;;;;11.94;68.43;99828.72;15794160;28;20134;-63
2021/05/16 02:37:26;;;;;;;1999.90;999.90;;;;;;;11.81;68.49;99822.44;15794399;28;20074;-64
2021/05/16 02:44:59;;;;;;;1999.90;999.90;;;;;;;11.83;68.71;99832.06;15794112;28;20047;-63
2021/05/16 02:52:32;;;;;;;1999.90;999.90;;;;;;;11.67;69.20;99822.06;15795498;28;20527;-64
2021/05/16 03:00:05;;;;;;;1999.90;999.90;;;;;;;11.74;69.00;99814.66;15800860;28;20409;-64
2021/05/16 03:07:38;;;;;;;1999.90;999.90;;;;;;;11.64;68.90;99831.97;15805429;28;20060;-63
2021/05/16 03:15:13;;;;;;;1999.90;999.90;;;;;;;11.64;69.38;99818.00;15806965;28;20135;-61
2021/05/16 03:22:45;;;;;;;1999.90;999.90;;;;;;;11.63;69.80;99821.97;15805908;28;20075;-63
2021/05/16 03:30:18;;;;;;;1999.90;999.90;;;;;;;11.53;69.90;99833.69;15804829;28;20109;-64
2021/05/16 03:37:51;;;;;;;1999.90;999.90;;;;;;;11.75;69.44;99832.22;15804025;28;20071;-64
2021/05/16 03:45:23;;;;;;;1999.90;999.90;;;;;;;11.86;69.25;99838.91;15803891;28;20047;-63
2021/05/16 03:52:56;;;;;;;1999.90;999.90;;;;;;;12.06;69.08;99829.41;15796111;28;20043;-63
2021/05/16 04:00:27;;;;;;;1999.90;999.90;;;;;;;12.23;68.49;99824.59;15801759;28;20623;-61
2021/05/16 04:07:59;;;;;;;1999.90;999.90;;;;;;;12.22;68.57;99817.38;15802166;28;20044;-62
2021/05/16 04:15:31;;;;;;;1999.90;999.90;;;;;;;12.48;68.03;99814.75;15801549;28;20082;-61
2021/05/16 04:23:03;;;;;;;1999.90;999.90;;;;;;;12.70;67.82;99828.00;15795771;28;20133;-63
2021/05/16 04:30:35;;;;;;;1999.90;999.90;;;;;;;12.59;67.86;99832.56;15800698;28;20032;-63
2021/05/16 04:38:08;;;;;;;1999.90;999.90;;;;;;;12.90;68.84;99823.19;15799217;28;20082;-61
2021/05/16 04:45:39;;;;;;;1999.90;999.90;;;;;;;13.24;67.29;99829.91;15798909;28;20327;-64
2021/05/16 04:53:12;;;;;;;1999.90;999.90;;;;;;;13.19;67.38;99840.59;15798110;28;20056;-63
2021/05/16 05:00:43;;;;;;;1999.90;999.90;;;;;;;13.47;66.79;99841.09;15797944;28;20048;-63
2021/05/16 05:08:16;;;;;;;1999.90;999.90;;;;;;;13.51;66.81;99846.75;15797850;28;20070;-64
2021/05/16 05:15:48;;;;;;;1999.90;999.90;;;;;;;13.61;66.81;99848.94;15797369;28;20254;-63
2021/05/16 05:23:20;;;;;;;1999.90;999.90;;;;;;;14.58;65.13;99854.03;15797595;28;20044;-63
2021/05/16 05:30:51;;;;;;;1999.90;999.90;;;;;;;14.87;62.96;99850.41;15797946;28;20054;-63
2021/05/16 05:38:24;;;;;;;1999.90;999.90;;;;;;;14.89;63.47;99855.63;15779000;28;20040;-63
2021/05/16 05:45:55;;;;;;;1999.90;999.90;;;;;;;14.91;63.35;99854.09;15797223;28;20123;-63
2021/05/16 05:53:28;;;;;;;1999.90;999.90;;;;;;;14.93;63.25;99856.50;15795698;28;20511;-64
2021/05/16 06:00:59;;;;;;;1999.90;999.90;;;;;;;15.43;61.74;99855.03;15779280;28;20036;-63
2021/05/16 06:08:32;;;;;;;1999.90;999.90;;;;;;;15.25;62.89;99863.28;15798689;28;20477;-63
2021/05/16 06:16:05;;;;;;;1999.90;999.90;;;;;;;16.68;58.84;99859.66;15796345;28;20400;-63
2021/05/16 06:23:45;;;;;;;1999.90;999.90;;;;;;;15.67;60.22;99889.44;15796755;28;20139;-63
2021/05/16 06:31:17;;;;;;;1999.90;999.90;;;;;;;14.72;64.44;99883.13;15799350;28;20044;-62
2021/05/16 06:38:50;;;;;;;1999.90;999.90;;;;;;;14.95;64.63;99885.81;15809649;28;20560;-63
2021/05/16 06:46:22;;;;;;;1999.90;999.90;;;;;;;14.70;67.08;99876.28;15789879;28;20044;-62
2021/05/16 06:53:55;;;;;;;1999.90;999.90;;;;;;;14.80;68.18;99889.66;15806854;28;20058;-62
2021/05/16 07:01:26;;;;;;;1999.90;999.90;;;;;;;15.00;68.75;99879.03;15806953;28;20519;-61
2021/05/16 07:08:59;;;;;;;1999.90;999.90;;;;;;;15.03;69.47;99892.34;15806867;28;20085;-63
2021/05/16 07:16:30;;;;;;;1999.90;999.90;;;;;;;15.04;69.98;99893.94;15808195;28;20126;-63
2021/05/16 07:24:04;;;;;;;1999.90;999.90;;;;;;;15.33;69.10;99892.28;15817186;28;20048;-63
2021/05/16 07:31:35;;;;;;;1999.90;999.90;;;;;;;15.23;68.02;99892.97;15806024;28;20047;-63
2021/05/16 07:39:08;;;;;;;1999.90;999.90;;;;;;;15.15;68.52;99882.84;15805194;28;20136;-63
2021/05/16 07:46:39;;;;;;;1999.90;999.90;;;;;;;15.63;68.04;99895.03;15805044;28;20097;-64
2021/05/16 07:54:12;;;;;;;1999.90;999.90;;;;;;;15.64;67.76;99893.84;15804817;28;20067;-65
2021/05/16 08:01:43;;;;;;;1999.90;999.90;;;;;;;16.40;65.12;99890.41;15802862;28;20546;-64
2021/05/16 08:09:16;;;;;;;1999.90;999.90;;;;;;;17.15;62.83;99894.44;15786995;28;20393;-64
2021/05/16 08:16:47;;;;;;;1999.90;999.90;;;;;;;16.81;62.10;99888.28;15787667;28;20116;-64
2021/05/16 08:24:20;;;;;;;1999.90;999.90;;;;;;;16.47;63.11;99886.84;15786549;28;20189;-64
2021/05/16 08:31:51;;;;;;;1999.90;999.90;;;;;;;15.74;64.92;99887.50;15803733;28;20123;-62
2021/05/16 08:39:24;;;;;;;1999.90;999.90;;;;;;;15.63;66.64;99888.56;15803193;28;20166;-62
2021/05/16 08:46:56;;;;;;;1999.90;999.90;;;;;;;16.41;65.25;99883.59;15804490;28;20051;-64
2021/05/16 08:54:28;;;;;;;1999.90;999.90;;;;;;;18.74;58.02;99909.06;15799803;28;20101;-63
2021/05/16 09:02:01;;;;;;;1999.90;999.90;;;;;;;20.88;51.61;99894.25;15799580;28;20070;-62
2021/05/16 09:09:37;;;;;;;1999.90;999.90;;;;;;;22.29;47.28;99877.59;15795164;28;20121;-64
2021/05/16 09:17:26;;;;;;;1999.90;999.90;;;;;;;20.69;50.16;99887.16;15771920;28;20052;-62
2021/05/16 09:25:21;;;;;;;1999.90;999.90;;;;;;;19.50;53.31;99891.38;15780169;28;20134;-63
2021/05/16 09:32:55;;;;;;;1999.90;999.90;;;;;;;18.10;55.48;99893.00;15794543;28;20062;-64
2021/05/16 09:40:29;;;;;;;1999.90;999.90;;;;;;;17.69;60.86;99903.88;15796896;28;20124;-64
2021/05/16 09:48:16;;;;;;;1999.90;999.90;;;;;;;17.08;59.20;99907.69;15792882;28;20514;-60
2021/05/16 09:55:49;;;;;;;1999.90;999.90;;;;;;;17.13;58.54;99905.31;15757412;28;20045;-62
2021/05/16 10:03:20;;;;;;;1999.90;999.90;;;;;;;17.49;56.98;99900.56;15795710;28;20043;-63
2021/05/16 10:10:53;;;;;;;1999.90;999.90;;;;;;;17.70;54.11;99887.75;15785024;28;20050;-63
2021/05/16 10:18:27;;;;;;;1999.90;999.90;;;;;;;19.79;49.83;99872.19;15793080;28;20041;-63
2021/05/16 10:26:19;;;;;;;1999.90;999.90;;;;;;;22.15;45.92;99876.63;15793897;28;20044;-62
2021/05/16 10:33:50;;;;;;;1999.90;999.90;;;;;;;22.28;45.32;99878.84;15797280;28;20071;-63
2021/05/16 10:41:24;;;;;;;1999.90;999.90;;;;;;;22.35;44.95;99873.84;15795179;28;20585;-64
2021/05/16 10:49:20;;;;;;;1999.90;999.90;;;;;;;20.32;46.93;99875.78;15776746;28;20456;-64
2021/05/16 10:57:11;;;;;;;1999.90;999.90;;;;;;;21.10;45.90;99854.28;15792878;28;20510;-62
2021/05/16 11:04:46;;;;;;;1999.90;999.90;;;;;;;22.33;43.25;99847.91;15792695;28;20400;-63
2021/05/16 11:12:29;;;;;;;1999.90;999.90;;;;;;;22.03;42.25;99848.00;15793280;28;20496;-64
2021/05/16 11:20:01;;;;;;;1999.90;999.90;;;;;;;22.86;39.45;99848.13;15797014;28;20044;-64
2021/05/16 11:27:33;;;;;;;1999.90;999.90;;;;;;;24.79;36.30;99847.09;15783998;28;20036;-62
2021/05/16 11:35:11;;;;;;;1999.90;999.90;;;;;;;24.70;34.13;99845.72;15802359;28;20442;-63
2021/05/16 11:42:45;;;;;;;1999.90;999.90;;;;;;;22.90;38.78;99835.44;15785257;28;20068;-62
2021/05/16 11:50:17;;;;;;;1999.90;999.90;;;;;;;25.19;35.04;99816.97;15802170;28;20036;-62
2021/05/16 11:57:49;;;;;;;1999.90;999.90;;;;;;;25.15;34.69;99829.75;15800092;28;20181;-62
2021/05/16 12:05:28;;;;;;;1999.90;999.90;;;;;;;22.82;38.54;99808.34;15803175;28;20519;-62
2021/05/16 12:13:00;;;;;;;1999.90;999.90;;;;;;;21.18;40.87;99790.53;15802352;28;20128;-61
2021/05/16 12:20:35;;;;;;;1999.90;999.90;;;;;;;20.48;41.68;99807.25;15768531;28;20122;-65
2021/05/16 12:28:07;;;;;;;1999.90;999.90;;;;;;;20.11;49.57;99820.97;15791704;28;20116;-64
2021/05/16 12:35:39;;;;;;;1999.90;999.90;;;;;;;19.78;52.66;99836.59;15791138;28;20366;-63
2021/05/16 12:43:14;;;;;;;1999.90;999.90;;;;;;;20.25;54.01;99827.72;15782837;28;20308;-61
2021/05/16 12:50:48;;;;;;;1999.90;999.90;;;;;;;20.60;51.79;99840.69;15750004;28;20292;-62
2021/05/16 12:58:25;;;;;;;1999.90;999.90;;;;;;;22.95;44.09;99823.56;15741962;28;20118;-63
2021/05/16 13:05:57;;;;;;;1999.90;999.90;;;;;;;29.27;32.07;99835.91;15784424;28;20056;-62
2021/05/16 13:13:42;;;;;;;1999.90;999.90;;;;;;;30.81;29.49;99816.69;15765365;28;20195;-63
2021/05/16 13:21:38;;;;;;;1999.90;999.90;;;;;;;24.16;35.83;99806.41;15799639;28;20131;-63
2021/05/16 13:29:13;;;;;;;1999.90;999.90;;;;;;;23.07;38.20;99782.25;15783197;28;20040;-63
2021/05/16 13:36:45;;;;;;;1999.90;999.90;;;;;;;23.42;35.70;99774.91;15797395;28;20143;-62
2021/05/16 13:44:17;;;;;;;1999.90;999.90;;;;;;;21.83;38.19;99759.91;15798904;28;20044;-63
2021/05/16 13:51:49;;;;;;;1999.90;999.90;;;;;;;21.75;38.39;99761.28;15795662;28;20040;-63
2021/05/16 13:59:21;;;;;;;1999.90;999.90;;;;;;;20.70;41.10;99766.09;15795757;28;20322;-62
2021/05/16 14:06:53;;;;;;;1999.90;999.90;;;;;;;19.13;50.36;99780.88;15785956;28;20072;-62
2021/05/16 14:14:25;;;;;;;1999.90;999.90;;;;;;;19.74;45.82;99767.13;15792787;28;20083;-61
2021/05/16 14:21:57;;;;;;;1999.90;999.90;;;;;;;20.51;40.76;99752.56;15794223;28;20497;-63
2021/05/16 14:29:32;;;;;;;1999.90;999.90;;;;;;;20.93;41.52;99737.00;15794385;28;20058;-63
2021/05/16 14:37:03;;;;;;;1999.90;999.90;;;;;;;20.61;43.32;99745.94;15795839;28;20036;-62
2021/05/16 14:44:36;;;;;;;1999.90;999.90;;;;;;;20.86;42.41;99729.41;15795653;28;20075;-64
2021/05/16 14:52:08;;;;;;;1999.90;999.90;;;;;;;21.11;40.15;99726.22;15793306;28;20032;-63
2021/05/16 14:59:40;;;;;;;1999.90;999.90;;;;;;;21.14;39.24;99710.34;15806224;28;20068;-63
2021/05/16 15:07:12;;;;;;;1999.90;999.90;;;;;;;21.03;38.16;99704.84;15808651;28;20098;-63
2021/05/16 15:14:44;;;;;;;1999.90;999.90;;;;;;;21.04;38.53;99707.25;15806950;28;20058;-60
2021/05/16 15:22:15;;;;;;;1999.90;999.90;;;;;;;20.70;38.43;99698.84;15803077;28;20071;-63
2021/05/16 15:29:48;;;;;;;1999.90;999.90;;;;;;;20.63;38.68;99695.31;15808895;28;20112;-63
2021/05/16 15:37:20;;;;;;;1999.90;999.90;;;;;;;20.88;39.42;99695.78;15781007;28;20044;-63
2021/05/16 15:44:53;;;;;;;1999.90;999.90;;;;;;;21.08;39.52;99690.19;15801096;28;20043;-63
2021/05/16 15:52:25;;;;;;;1999.90;999.90;;;;;;;21.35;38.75;99686.53;15783329;28;20098;-65
2021/05/16 15:59:57;;;;;;;1999.90;999.90;;;;;;;21.00;40.07;99685.88;15779032;22;20076;-64
2021/05/16 16:07:29;;;;;;;1999.90;999.90;;;;;;;20.40;39.73;99687.50;15787733;28;20040;-62
2021/05/16 16:15:01;;;;;;;1999.90;999.90;;;;;;;20.26;40.33;99682.81;15788577;28;20048;-63
2021/05/16 16:22:34;;;;;;;1999.90;999.90;;;;;;;20.33;41.75;99687.63;15744520;28;20044;-63
2021/05/16 16:30:08;;;;;;;1999.90;999.90;;;;;;;20.18;41.71;99672.81;15745386;28;20102;-63
2021/05/16 16:37:40;;;;;;;1999.90;999.90;;;;;;;20.15;42.79;99668.00;15746134;28;20071;-63
2021/05/16 16:45:13;;;;;;;1999.90;999.90;;;;;;;20.03;43.41;99674.22;15727556;28;20048;-62
2021/05/16 16:52:45;;;;;;;1999.90;999.90;;;;;;;19.67;44.32;99668.94;15744985;28;20040;-62
2021/05/16 17:00:18;;;;;;;1999.90;999.90;;;;;;;19.75;45.23;99673.31;15743903;28;20041;-61
2021/05/16 17:07:50;;;;;;;1999.90;999.90;;;;;;;19.69;45.21;99663.66;15743727;28;20064;-64
2021/05/16 17:15:22;;;;;;;1999.90;999.90;;;;;;;19.95;45.65;99667.03;15742466;28;20464;-64
2021/05/16 17:22:54;;;;;;;1999.90;999.90;;;;;;;19.88;45.25;99663.03;15742926;28;20416;-60
2021/05/16 17:30:27;;;;;;;1999.90;999.90;;;;;;;19.36;46.97;99676.47;15741994;28;20048;-59
2021/05/16 17:38:00;;;;;;;1999.90;999.90;;;;;;;19.22;46.17;99671.75;15742137;28;20106;-62
2021/05/16 17:45:32;;;;;;;1999.90;999.90;;;;;;;19.32;48.12;99682.16;15739237;28;20075;-64
2021/05/16 17:53:04;;;;;;;1999.90;999.90;;;;;;;18.97;48.24;99676.81;15716815;28;20079;-64
2021/05/16 18:00:42;;;;;;;1999.90;999.90;;;;;;;18.88;48.75;99665.97;15740813;28;20051;-64
2021/05/16 18:08:13;;;;;;;1999.90;999.90;;;;;;;18.79;48.96;99662.81;15717761;28;20087;-62
2021/05/16 18:15:46;;;;;;;1999.90;999.90;;;;;;;18.57;49.09;99664.94;15733906;28;20123;-65
2021/05/16 18:23:17;;;;;;;1999.90;999.90;;;;;;;18.45;48.74;99674.69;15740646;28;20048;-63
2021/05/16 18:30:50;;;;;;;1999.90;999.90;;;;;;;18.23;49.13;99678.81;15749204;28;20053;-62
2021/05/16 18:38:22;;;;;;;1999.90;999.90;;;;;;;18.03;49.22;99670.03;15752175;28;20143;-63
2021/05/16 18:45:55;;;;;;;1999.90;999.90;;;;;;;17.92;49.28;99676.91;15739781;28;20094;-63
2021/05/16 18:53:26;;;;;;;1999.90;999.90;;;;;;;17.77;51.19;99682.59;15752217;28;20044;-63
2021/05/16 19:00:59;;;;;;;1999.90;999.90;;;;;;;17.56;50.36;99680.59;15752396;28;20037;-63
2021/05/16 19:08:30;;;;;;;1999.90;999.90;;;;;;;17.46;51.82;99697.53;15739141;28;20059;-62
2021/05/16 19:16:06;;;;;;;1999.90;999.90;;;;;;;17.41;52.08;99701.56;15759306;28;20497;-63
2021/05/16 19:23:38;;;;;;;1999.90;999.90;;;;;;;17.20;52.03;99705.22;15737914;28;20636;-62
2021/05/16 19:31:10;;;;;;;1999.90;999.90;;;;;;;17.19;52.12;99714.03;15750954;28;20055;-63
2021/05/16 19:38:43;;;;;;;1999.90;999.90;;;;;;;16.89;52.70;99720.88;15750314;28;20040;-60
2021/05/16 19:46:15;;;;;;;1999.90;999.90;;;;;;;16.59;54.35;99709.09;15750050;28;20051;-61
2021/05/16 19:53:48;;;;;;;1999.90;999.90;;;;;;;16.37;54.68;99702.59;15748075;28;20193;-63
2021/05/16 20:01:27;;;;;;;1999.90;999.90;;;;;;;16.22;54.96;99695.28;15747498;28;20144;-62
2021/05/16 20:08:58;;;;;;;1999.90;999.90;;;;;;;16.06;55.29;99696.44;15730586;28;20037;-64
2021/05/16 20:16:32;;;;;;;1999.90;999.90;;;;;;;16.02;55.71;99692.78;15746209;28;20655;-62
2021/05/16 20:24:04;;;;;;;;;;;;;;;15.87;56.28;99703.16;15745194;28;20045;-61
2021/05/16 20:31:39;;;;;;;1999.90;999.90;;;;;;;15.72;56.93;99701.44;15738372;28;19924;-58
2021/05/16 20:39:11;;;;;;;1999.90;999.90;;;;;;;15.48;57.97;99708.50;15739929;28;20416;-64
2021/05/16 20:46:46;;;;;;;1999.90;999.90;;;;;;;15.51;58.13;99695.66;15748693;28;20040;-64
2021/05/16 20:54:18;;;;;;;1999.90;999.90;;;;;;;15.32;58.80;99699.56;15744298;28;20045;-62
2021/05/16 21:01:50;;;;;;;1999.90;999.90;;;;;;;15.15;59.30;99686.97;15744382;28;20045;-61
2021/05/16 21:09:22;;;;;;;1999.90;999.90;;;;;;;15.07;60.00;99690.09;15726398;28;20045;-59
2021/05/16 21:16:54;;;;;;;1999.90;999.90;;;;;;;14.82;60.58;99687.06;15742558;28;20540;-63
2021/05/16 21:24:26;;;;;;;1999.90;999.90;;;;;;;14.71;61.76;99687.78;15740415;28;20106;-63
2021/05/16 21:31:59;;;;;;;1999.90;999.90;;;;;;;14.51;62.46;99696.78;15740485;28;20094;-62
2021/05/16 21:39:31;;;;;;;1999.90;999.90;;;;;;;14.49;62.35;99710.41;15739878;28;20074;-61
2021/05/16 21:47:03;;;;;;;1999.90;999.90;;;;;;;14.22;63.44;99713.25;15740764;28;20070;-62
2021/05/16 21:54:35;;;;;;;1999.90;999.90;;;;;;;14.26;63.43;99711.28;15740949;28;20063;-62
2021/05/16 22:02:07;;;;;;;1999.90;999.90;;;;;;;14.15;64.10;99708.34;15739047;28;20044;-62
2021/05/16 22:09:39;;;;;;;1999.90;999.90;;;;;;;14.15;64.28;99710.34;15740770;28;20044;-62
2021/05/16 22:17:11;;;;;;;1999.90;999.90;;;;;;;14.04;64.34;99704.59;15728011;28;20103;-62
2021/05/16 22:24:44;;;;;;;1999.90;999.90;;;;;;;14.07;64.49;99697.44;15739026;28;20048;-62
2021/05/16 22:32:16;;;;;;;1999.90;999.90;;;;;;;13.84;65.06;99700.31;15737728;28;20413;-61
2021/05/16 22:39:48;;;;;;;1999.90;999.90;;;;;;;13.60;65.93;99690.38;15739259;28;20064;-62
2021/05/16 22:47:20;;;;;;;1999.90;999.90;;;;;;;13.34;66.48;99685.59;15738774;28;20172;-62
2021/05/16 22:54:52;;;;;;;1999.90;999.90;;;;;;;13.15;67.31;99678.03;15720890;28;20044;-62
2021/05/16 23:02:24;;;;;;;1999.90;999.90;;;;;;;12.90;67.97;99665.59;15720121;28;20037;-60
2021/05/16 23:09:57;;;;;;;1999.90;999.90;;;;;;;12.84;68.36;99672.72;15720567;28;20102;-62
2021/05/16 23:17:32;;;;;;;1999.90;999.90;;;;;;;12.88;68.73;99677.19;15744674;28;20086;-61
2021/05/16 23:25:05;;;;;;;1999.90;999.90;;;;;;;12.80;68.86;99683.84;15748660;28;20098;-63
2021/05/16 23:32:38;;;;;;;1999.90;999.90;;;;;;;12.89;68.67;99672.38;15684698;28;20111;-63
2021/05/16 23:40:10;;;;;;;1999.90;999.90;;;;;;;12.88;68.63;99668.78;15684123;28;20120;-61
2021/05/16 23:47:43;;;;;;;1999.90;999.90;;;;;;;12.82;68.99;99666.66;15685423;28;20121;-61
2021/05/16 23:55:16;;;;;;;1999.90;999.90;;;;;;;12.84;68.99;99661.53;15687710;28;20124;-61
